createdAt,value
2023-02-06T00:08:32.061Z,101156.34
2023-02-06T00:18:55.423Z,101157.00
2023-02-06T00:29:16.834Z,101164.38
2023-02-06T00:39:38.341Z,101161.03
2023-02-06T00:49:59.834Z,101150.28
2023-02-06T01:00:21.394Z,101153.56
2023-02-06T01:10:44.233Z,101156.03
2023-02-06T01:21:18.137Z,101148.53
2023-02-06T01:31:39.594Z,101156.88
2023-02-06T01:42:00.896Z,101153.50
2023-02-06T01:52:25.969Z,101169.25
2023-02-06T02:02:49.067Z,101185.03
2023-02-06T02:13:10.454Z,101187.47
2023-02-06T02:24:14.775Z,101193.28
2023-02-06T02:35:28.724Z,101188.28
2023-02-06T02:46:16.033Z,101200.66
2023-02-06T02:56:38.109Z,101203.13
2023-02-06T03:07:47.531Z,101218.06
2023-02-06T03:18:17.469Z,101226.31
2023-02-06T03:28:44.688Z,101212.22
2023-02-06T03:39:06.146Z,101228.81
2023-02-06T03:49:31.906Z,101234.66
2023-02-06T03:59:53.786Z,101237.16
2023-02-06T04:10:15.030Z,101239.53
2023-02-06T04:20:40.826Z,101255.16
2023-02-06T04:31:02.027Z,101264.25
2023-02-06T04:41:23.515Z,101257.63
2023-02-06T04:51:45.095Z,101263.44
2023-02-06T05:02:06.253Z,101271.63
2023-02-06T05:12:29.061Z,101267.50
2023-02-06T05:22:50.270Z,101271.59
2023-02-06T05:33:11.804Z,101286.53
2023-02-06T07:31:30.466Z,101342.50
2023-02-06T07:41:52.667Z,101342.66
2023-02-06T07:52:15.962Z,101339.78
2023-02-06T08:02:37.363Z,101336.94
2023-02-06T08:12:58.811Z,101336.34
2023-02-06T08:23:20.931Z,101344.00
2023-02-06T08:33:42.750Z,101349.50
2023-02-06T08:44:11.671Z,101355.44
2023-02-06T08:54:35.510Z,101359.53
2023-02-06T09:04:57.793Z,101362.22
2023-02-06T09:15:05.044Z,101365.53
2023-02-06T09:25:26.714Z,101363.97
2023-02-06T09:35:48.533Z,101361.38
2023-02-06T09:46:15.200Z,101356.38
2023-02-06T09:57:02.287Z,101348.09
2023-02-06T10:08:02.386Z,101357.16
2023-02-06T10:18:42.168Z,101352.28
2023-02-06T10:29:04.933Z,101336.78
2023-02-06T10:39:51.027Z,101339.41
2023-02-06T10:50:49.212Z,101336.91
2023-02-06T11:01:25.024Z,101334.72
2023-02-06T11:11:48.528Z,101327.28
2023-02-06T11:22:12.855Z,101325.63
2023-02-06T11:32:52.804Z,101336.91
2023-02-06T11:43:26.403Z,101333.00
2023-02-06T11:54:03.211Z,101309.59
2023-02-06T12:04:40.676Z,101314.81
2023-02-06T12:15:36.287Z,101303.91
2023-02-06T12:25:58.055Z,101307.50
2023-02-06T12:36:25.551Z,101326.66
2023-02-06T12:46:58.264Z,101311.44
2023-02-06T12:57:24.701Z,101298.16
2023-02-06T13:07:49.685Z,101295.22
2023-02-06T16:18:40.327Z,101382.53
2023-02-06T16:29:22.278Z,101388.06
2023-02-06T16:39:46.142Z,101369.69
2023-02-06T16:50:10.343Z,101371.16
2023-02-06T17:00:32.587Z,101374.28
2023-02-06T17:10:53.664Z,101380.59
2023-02-06T17:21:18.775Z,101377.09
2023-02-06T17:31:39.978Z,101379.41
2023-02-06T17:42:01.536Z,101382.56
2023-02-06T17:52:22.997Z,101376.56
2023-02-06T18:02:44.576Z,101372.81
2023-02-06T18:13:05.941Z,101378.75
2023-02-06T18:23:27.911Z,101380.31
2023-02-06T18:33:49.063Z,101388.97
2023-02-06T18:44:11.629Z,101386.34
2023-02-06T18:54:35.011Z,101395.69
2023-02-06T19:04:58.762Z,101404.72
2023-02-06T19:15:20.150Z,101405.53
2023-02-06T19:25:41.668Z,101393.63
2023-02-06T19:36:12.844Z,101397.16
2023-02-06T19:46:35.351Z,101387.31
2023-02-06T19:56:56.862Z,101371.50
2023-02-06T20:07:18.498Z,101366.13
2023-02-06T20:17:40.152Z,101373.91
2023-02-06T20:28:01.784Z,101369.16
2023-02-06T20:38:23.201Z,101360.97
2023-02-06T20:48:47.142Z,101367.81
2023-02-06T20:59:12.578Z,101358.00
2023-02-06T21:09:35.188Z,101366.38
2023-02-06T21:19:56.316Z,101361.53
2023-02-06T21:30:18.147Z,101351.69
2023-02-06T21:40:39.601Z,101353.88
2023-02-06T21:51:16.454Z,101341.47
2023-02-06T22:01:40.535Z,101329.25
